Share

Ashland, MS (38603)

Bethlehem (KMSPOTTS2) Elev 390 ft | 34.56 °N, 89.36 °W | Change Station

Current weather conditions updated 1 second ago

Clear
Clear
39.7 °F
Feels Like 40 °F
N
0.0
Wind Variable Wind from North
Gusts 0.7 mph
Sunrise 6:22 AM
Sunset 7:30 PM
Moon Waning Gibbous

Today is forecast to be Cooler than yesterday.

Pressure 30.22 in
Visibility 10.0 miles
Clouds Clear
Windchill 40 °F
Dew Point 40 °F
Humidity 99%
Rainfall 0.00 in
Snow Depth Not available.
UV 0 out of 16
Pollen 8.50 out of 12
Air Quality Not available.
Flu Activity No Activity
METAR KCRX 170650Z AUTO 15003KT 10SM CLR 04/03 A3022 RMK AO2

More Conditions Fewer Conditions

Pressure 30.22 in
Visibility 10.0 miles
Clouds Clear
Windchill 40 °F
Dew Point 40 °F
Humidity 99%
Rainfall 0.00 in
Snow Depth Not available.
UV 0 out of 16
Pollen 8.50 out of 12
Air Quality Not available.
Flu Activity No Activity
METAR KCRX 170650Z AUTO 15003KT 10SM CLR 04/03 A3022 RMK AO2

More Conditions Fewer Conditions

10-Day Forecast

Almanac

Astronomy

Apr. 17, 2014 Rise Set
Actual Time 6:22 AM CDT 7:30 PM CDT
Civil Twilight 5:56 AM CDT 7:56 PM CDT
Nautical Twilight 5:25 AM CDT 8:27 PM CDT
Astronomical Twilight 4:53 AM CDT 9:00 PM CDT
Moon 10:11 PM CDT 7:58 AM CDT
Length of Visible Light 14h 00m
Length of Day
13h 08m
Tomorrow will be 2m 3s longer.
Waning Gibbous, 95% of the Moon is Illuminated
Today
Waning Gibbous
Apr 22
Last Quarter
Apr 29
New
May 6
First Quarter
May 14
Full

Today's Extremes

State Highs State Lows

Community

  • Sunset over the Bay
    Sunset over the Bay
  • symphony in blue....
    symphony in blue....
  • Dawn Surprise
    Dawn Surprise
  • Yucca delight
    Yucca delight
  • Sunset inside of the Ocean
    Sunset inside of the Ocean

WunderPhotos

Upload Photos

1,701,875 photos uploaded!

WunderBlogs® & News

Nearby

Snow Depth

Station Depth Elevation
No new snow has been reported.

Coastal Water Temperatures

Place Temperature
No Stations Reporting

Earthquake Activity

City Distance Mag. Time & Date
No recent earthquake activity has been reported nearby.
Minimum magnitude displayed is 2.5.

Nearby Weather Stations

Station Location Temp. Windchill Dew Point Humidity Wind Precip. Elev Updated Type
RAWS WINBORN MS, Potts Camp, MS 39 °F 39 °F 32 °F 76% ESE  at  1 mph 0.00 in / hr 500 ft 1:09 AM CDT MADIS
Bethlehem, Potts Camp, MS 39.7 °F 40 °F 40 °F 99% North  at  0.0 mph 0.00 in / hr 390 ft 2:10 AM CDT Rapid Fire
Northhaven, New Albany, MS 36.9 °F 37 °F 37 °F 99% SE  at  0.0 mph - / hr 351 ft 2:06 AM CDT Normal

Show More Stations Show Fewer Stations

What do you think?

We're not finished. Please let us know what you like, what you don't like, and what you are still missing.